Time;durP1;ratioP1;P1;durP2;ratioP2;P2;SDS_P1;SDS_P2;PMS_P1;PMS_P2;Temp;Humidity;BMP_temperature;BMP_pressure;BME280_temperature;BME280_humidity;BME280_pressure;Samples;Min_cycle;Max_cycle;Signal;HPM_P1;HPM_P2
2022/05/09 00:00:06;;;;;;;4.10;1.50;;;;;;;9.86;100.00;99670.69;4973896;28;20046;-39
2022/05/09 00:02:38;;;;;;;3.28;1.60;;;;;;;9.90;100.00;99670.53;4974540;28;20522;-39
2022/05/09 00:05:05;;;;;;;8.68;1.77;;;;;;;9.90;100.00;99664.50;4971640;28;20497;-38
2022/05/09 00:07:30;;;;;;;3.42;1.73;;;;;;;9.94;100.00;99672.16;4992184;28;20042;-39
2022/05/09 00:09:56;;;;;;;2.47;1.58;;;;;;;9.96;100.00;99674.69;5004140;28;20050;-39
2022/05/09 00:12:22;;;;;;;5.57;1.80;;;;;;;9.99;100.00;99674.63;4986595;28;20069;-38
2022/05/09 00:14:48;;;;;;;2.35;1.85;;;;;;;9.98;100.00;99660.78;4990024;28;20631;-40
2022/05/09 00:17:13;;;;;;;2.40;1.70;;;;;;;10.01;100.00;99667.59;4991732;28;20069;-39
2022/05/09 00:19:39;;;;;;;3.08;2.00;;;;;;;9.97;100.00;99666.88;4990731;28;20069;-39
2022/05/09 00:22:05;;;;;;;3.35;2.28;;;;;;;9.98;100.00;99667.72;4991327;28;20062;-39
2022/05/09 00:24:31;;;;;;;4.10;2.33;;;;;;;9.91;100.00;99666.19;4990789;28;20045;-38
2022/05/09 00:26:57;;;;;;;3.72;1.98;;;;;;;9.97;100.00;99668.59;4991679;28;20180;-39
2022/05/09 00:29:24;;;;;;;3.22;2.22;;;;;;;9.95;100.00;99671.25;4991388;28;20060;-38
2022/05/09 00:31:52;;;;;;;2.80;2.20;;;;;;;9.97;100.00;99677.25;4991630;28;20042;-39
2022/05/09 00:34:21;;;;;;;3.55;2.35;;;;;;;9.98;100.00;99678.09;4991633;28;20042;-39
2022/05/09 00:36:48;;;;;;;5.63;2.20;;;;;;;9.97;100.00;99673.81;4991257;28;20050;-39
2022/05/09 00:39:14;;;;;;;4.50;2.20;;;;;;;9.80;100.00;99643.16;4991559;28;20038;-39
2022/05/09 00:41:42;;;;;;;4.50;2.38;;;;;;;9.96;100.00;99670.34;4990874;28;20070;-39
2022/05/09 00:44:27;;;;;;;2.92;2.20;;;;;;;9.85;100.00;99659.44;4991450;28;20042;-39
2022/05/09 00:46:55;;;;;;;7.35;2.70;;;;;;;9.89;100.00;99663.63;4991307;28;20050;-39
2022/05/09 00:49:22;;;;;;;6.70;2.28;;;;;;;9.88;100.00;99669.75;4991361;28;20049;-39
2022/05/09 00:52:22;;;;;;;4.13;2.33;;;;;;;9.84;100.00;99670.72;4989970;28;20065;-39
2022/05/09 00:55:00;;;;;;;6.70;2.75;;;;;;;9.83;100.00;99673.41;4988907;28;20046;-39
2022/05/09 00:57:31;;;;;;;5.67;2.47;;;;;;;9.82;100.00;99675.16;4989881;28;20042;-39
2022/05/09 01:00:02;;;;;;;3.30;2.20;;;;;;;9.79;100.00;99670.88;4983204;28;20291;-39
2022/05/09 01:02:29;;;;;;;4.55;2.75;;;;;;;9.84;100.00;99672.50;4972073;28;20482;-38
2022/05/09 01:04:57;;;;;;;4.55;2.58;;;;;;;9.86;99.93;99679.34;4982673;28;20046;-38
2022/05/09 01:07:24;;;;;;;4.75;2.58;;;;;;;9.87;99.63;99682.78;4973488;28;20526;-39
2022/05/09 01:09:51;;;;;;;3.78;2.67;;;;;;;9.85;99.67;99692.34;4993787;28;20050;-40
2022/05/09 01:12:20;;;;;;;4.18;2.53;;;;;;;9.84;99.46;99686.31;4995508;28;20114;-39
2022/05/09 01:14:46;;;;;;;6.43;2.22;;;;;;;9.70;99.89;99653.00;4993375;28;20065;-39
2022/05/09 01:17:13;;;;;;;4.28;2.58;;;;;;;9.86;99.68;99673.28;4993837;28;20510;-38
2022/05/09 01:19:44;;;;;;;6.88;2.40;;;;;;;9.86;100.00;99681.06;4993302;28;20151;-40
2022/05/09 01:22:25;;;;;;;4.18;2.40;;;;;;;9.85;99.33;99689.75;4995262;28;20050;-39
2022/05/09 01:24:53;;;;;;;9.73;3.30;;;;;;;9.86;98.94;99694.06;4993958;28;20407;-39
2022/05/09 01:27:18;;;;;;;5.72;2.67;;;;;;;9.88;98.96;99692.28;4994823;28;20133;-40
2022/05/09 01:30:05;;;;;;;4.65;2.08;;;;;;;9.87;98.73;99690.56;4993616;28;20479;-39
2022/05/09 01:32:44;;;;;;;5.88;2.10;;;;;;;9.84;98.99;99678.53;4994652;28;20047;-39
2022/05/09 01:35:22;;;;;;;4.45;2.28;;;;;;;9.82;98.46;99680.34;4993592;28;20030;-39
2022/05/09 01:37:52;;;;;;;5.55;2.05;;;;;;;9.78;98.32;99674.41;4994831;28;20046;-38
2022/05/09 01:40:18;;;;;;;4.00;2.05;;;;;;;9.68;97.11;99656.56;4977309;28;20506;-39
2022/05/09 01:42:44;;;;;;;4.13;1.92;;;;;;;9.73;96.20;99671.06;4993961;28;20068;-40
2022/05/09 01:45:12;;;;;;;5.97;1.90;;;;;;;9.72;96.08;99671.13;4976772;28;20047;-39
2022/05/09 01:50:23;;;;;;;4.20;2.00;;;;;;;9.72;96.61;99664.19;4993505;28;20049;-39
2022/05/09 01:52:49;;;;;;;5.50;1.83;;;;;;;9.73;96.07;99675.44;4994399;28;20417;-40
2022/05/09 01:55:18;;;;;;;2.50;1.88;;;;;;;9.75;95.74;99679.66;4984379;28;20043;-39
2022/05/09 01:57:43;;;;;;;2.38;1.60;;;;;;;9.76;95.65;99681.38;4987679;28;20057;-38
2022/05/09 02:00:10;;;;;;;2.92;1.63;;;;;;;9.78;95.52;99676.16;4993776;28;20091;-39
2022/05/09 02:02:42;;;;;;;5.13;2.00;;;;;;;9.81;95.17;99680.38;4994390;28;20057;-39
2022/05/09 02:05:07;;;;;;;3.90;1.55;;;;;;;9.84;94.15;99680.28;4994321;28;20124;-39
2022/05/09 02:07:34;;;;;;;4.50;1.50;;;;;;;9.85;93.92;99682.81;4994361;28;20128;-39
2022/05/09 02:09:59;;;;;;;2.72;1.30;;;;;;;9.87;93.05;99675.84;4992322;28;20046;-39
2022/05/09 02:12:25;;;;;;;3.42;1.80;;;;;;;9.88;92.90;99676.69;4979917;28;20049;-39
2022/05/09 02:14:52;;;;;;;3.75;1.70;;;;;;;9.89;93.16;99684.41;4993657;28;20050;-39
2022/05/09 02:17:18;;;;;;;2.45;1.40;;;;;;;9.89;92.78;99681.81;4994367;28;20063;-38
2022/05/09 02:19:44;;;;;;;4.25;1.40;;;;;;;9.91;92.58;99687.81;4993394;28;20041;-39
2022/05/09 02:22:10;;;;;;;3.63;1.50;;;;;;;9.93;91.26;99692.97;4993555;28;20046;-40
2022/05/09 02:24:38;;;;;;;2.00;1.40;;;;;;;9.92;91.43;99689.53;4993493;28;20042;-38
2022/05/09 02:27:05;;;;;;;2.83;1.65;;;;;;;9.93;91.75;99685.19;4993956;28;20038;-38
2022/05/09 02:29:31;;;;;;;3.88;1.75;;;;;;;9.91;90.54;99695.63;4993316;28;20046;-39
2022/05/09 02:31:57;;;;;;;3.85;2.28;;;;;;;9.91;91.52;99689.56;4993783;28;20042;-38
2022/05/09 02:34:24;;;;;;;4.57;1.70;;;;;;;9.95;91.63;99696.34;4992771;28;20046;-43
2022/05/09 02:36:49;;;;;;;2.95;1.90;;;;;;;9.87;91.36;99678.44;4993919;28;20152;-39
2022/05/09 02:39:15;;;;;;;5.35;1.63;;;;;;;9.88;91.67;99679.28;4992303;28;20506;-39
2022/05/09 02:41:41;;;;;;;2.47;1.70;;;;;;;9.96;91.21;99703.25;4993341;28;20046;-43
2022/05/09 02:44:08;;;;;;;2.30;1.40;;;;;;;9.98;90.62;99701.47;4993608;28;20125;-38
2022/05/09 02:46:34;;;;;;;3.05;1.35;;;;;;;10.00;89.78;99694.47;4992166;28;20042;-38
2022/05/09 02:49:02;;;;;;;3.55;1.67;;;;;;;9.94;89.55;99692.94;4993619;28;20038;-40
2022/05/09 02:51:28;;;;;;;3.38;2.13;;;;;;;9.99;90.08;99704.03;4993008;28;20580;-38
2022/05/09 02:53:58;;;;;;;2.95;1.48;;;;;;;10.03;89.80;99699.59;4992795;28;20038;-39
2022/05/09 02:56:24;;;;;;;1.83;1.52;;;;;;;10.02;89.81;99703.91;4988758;28;20540;-39
2022/05/09 02:58:50;;;;;;;3.63;1.80;;;;;;;10.02;89.91;99696.13;4975381;28;20542;-39
2022/05/09 03:01:16;;;;;;;3.70;1.70;;;;;;;9.97;89.49;99692.84;4986415;28;20046;-38
2022/05/09 03:06:28;;;;;;;2.65;1.50;;;;;;;10.03;89.00;99707.38;4993133;28;20534;-39
2022/05/09 03:08:54;;;;;;;2.40;1.35;;;;;;;9.89;88.21;99689.63;4993501;28;21546;-40
2022/05/09 03:11:20;;;;;;;3.55;1.65;;;;;;;9.97;88.55;99702.38;4992968;28;20050;-39
2022/05/09 03:13:46;;;;;;;1.58;1.20;;;;;;;9.97;88.55;99702.38;4992476;28;20042;-39
2022/05/09 03:16:11;;;;;;;2.47;1.42;;;;;;;9.97;88.22;99707.56;4991448;28;20038;-41
2022/05/09 03:18:37;;;;;;;2.90;1.50;;;;;;;9.85;87.81;99690.63;4991648;28;20038;-38
2022/05/09 03:21:04;;;;;;;3.95;1.50;;;;;;;9.85;87.21;99702.75;4993022;28;20069;-39
2022/05/09 03:23:31;;;;;;;2.15;1.30;;;;;;;9.76;86.09;99696.94;4992378;28;20104;-39
2022/05/09 03:25:58;;;;;;;3.17;1.30;;;;;;;9.69;86.31;99713.59;4992756;28;20038;-40
2022/05/09 03:28:27;;;;;;;1.77;1.33;;;;;;;9.63;85.96;99715.56;4991587;28;20429;-39
2022/05/09 03:30:56;;;;;;;2.97;1.52;;;;;;;9.54;85.95;99708.03;4991379;28;20133;-39
2022/05/09 03:33:24;;;;;;;2.17;1.30;;;;;;;9.46;86.29;99697.88;4992001;28;20065;-39
2022/05/09 03:35:52;;;;;;;2.58;1.00;;;;;;;9.43;85.84;99712.66;4991660;28;20070;-39
2022/05/09 03:38:18;;;;;;;3.08;1.20;;;;;;;9.35;86.00;99698.19;4992498;28;20045;-38
2022/05/09 03:40:44;;;;;;;2.63;1.17;;;;;;;9.47;85.99;99717.75;4992583;28;20042;-41
2022/05/09 03:43:11;;;;;;;3.78;1.30;;;;;;;9.47;85.02;99715.16;4990908;28;20049;-39
2022/05/09 03:45:39;;;;;;;2.03;1.27;;;;;;;9.33;84.28;99707.75;4990293;28;20052;-41
2022/05/09 03:48:05;;;;;;;2.30;1.50;;;;;;;9.39;83.61;99721.44;4990842;28;20038;-38
2022/05/09 03:50:31;;;;;;;2.13;1.20;;;;;;;9.18;83.29;99690.03;4992760;28;20046;-39
2022/05/09 03:52:56;;;;;;;2.95;1.27;;;;;;;9.29;82.91;99713.94;4992062;28;20058;-39
2022/05/09 03:55:22;;;;;;;2.33;1.30;;;;;;;9.27;82.41;99722.63;4988155;28;20096;-38
2022/05/09 03:57:51;;;;;;;2.42;1.20;;;;;;;9.28;81.97;99716.56;4990435;28;20156;-39
2022/05/09 04:00:18;;;;;;;4.77;1.57;;;;;;;9.32;81.11;99720.75;4963683;28;20046;-40
2022/05/09 04:02:44;;;;;;;2.70;1.25;;;;;;;9.39;81.15;99726.63;4977460;28;20052;-40
2022/05/09 04:05:20;;;;;;;3.35;1.20;;;;;;;9.37;80.27;99718.06;4990790;28;20644;-39
2022/05/09 04:07:52;;;;;;;1.80;1.30;;;;;;;9.35;80.44;99703.38;4991972;28;20038;-40
2022/05/09 04:10:21;;;;;;;3.70;1.20;;;;;;;9.52;79.75;99726.25;4972892;28;20113;-39
2022/05/09 04:12:47;;;;;;;3.53;1.40;;;;;;;9.69;79.09;99720.53;4990807;28;20454;-39
2022/05/09 04:17:57;;;;;;;5.50;1.13;;;;;;;9.79;77.55;99724.53;4992283;28;20046;-39
2022/05/09 04:20:24;;;;;;;2.40;1.25;;;;;;;9.81;77.18;99727.09;4970732;28;20049;-39
2022/05/09 04:22:51;;;;;;;2.33;1.20;;;;;;;9.85;76.52;99728.72;4975982;28;20042;-40
2022/05/09 04:25:19;;;;;;;2.40;1.20;;;;;;;9.90;76.14;99714.69;4991841;28;20513;-39
2022/05/09 04:27:45;;;;;;;10.13;3.70;;;;;;;10.04;74.99;99729.84;4991199;28;20073;-40
2022/05/09 04:30:11;;;;;;;3.58;1.63;;;;;;;10.14;74.13;99732.13;4991357;28;20506;-39
2022/05/09 04:32:38;;;;;;;2.67;1.10;;;;;;;10.20;73.22;99718.13;4990158;28;20034;-38
2022/05/09 04:35:04;;;;;;;1.73;1.38;;;;;;;10.30;72.40;99714.31;4991787;28;20046;-39
2022/05/09 04:37:30;;;;;;;2.25;0.80;;;;;;;10.45;71.98;99707.75;4991594;28;20073;-39
2022/05/09 04:39:58;;;;;;;3.55;1.00;;;;;;;10.59;71.08;99723.72;4991158;28;20066;-39
2022/05/09 04:42:25;;;;;;;4.80;1.35;;;;;;;10.60;70.44;99718.50;4991328;28;20125;-40
2022/05/09 04:44:50;;;;;;;3.53;1.40;;;;;;;10.66;70.17;99720.03;4990902;28;20133;-39
2022/05/09 04:47:17;;;;;;;9.88;1.25;;;;;;;10.62;69.03;99703.66;4991285;28;20121;-39
2022/05/09 04:49:42;;;;;;;1.83;0.90;;;;;;;10.83;67.67;99727.25;4991007;28;20490;-39
2022/05/09 04:52:08;;;;;;;2.88;1.10;;;;;;;10.85;66.63;99721.09;4990042;28;20128;-38
2022/05/09 04:54:34;;;;;;;6.80;1.20;;;;;;;10.98;64.95;99727.56;4986468;28;20453;-38
2022/05/09 04:57:00;;;;;;;1.98;0.88;;;;;;;11.17;64.32;99735.56;4980931;28;20429;-39
2022/05/09 04:59:25;;;;;;;4.88;1.33;;;;;;;11.34;62.66;99740.16;4986843;28;20117;-39
2022/05/09 05:01:51;;;;;;;2.30;1.20;;;;;;;11.44;61.79;99738.91;4989814;28;20050;-38
2022/05/09 05:04:17;;;;;;;1.33;1.00;;;;;;;11.42;61.09;99736.38;4990236;28;20077;-38
2022/05/09 05:06:44;;;;;;;3.63;1.00;;;;;;;11.34;60.17;99745.38;4989583;28;20549;-40
2022/05/09 05:09:10;;;;;;;4.50;1.35;;;;;;;11.36;60.40;99744.41;4991070;28;20038;-38
2022/05/09 05:11:37;;;;;;;1.95;0.95;;;;;;;11.31;59.68;99740.25;4991108;28;20521;-38
2022/05/09 05:14:03;;;;;;;2.35;1.08;;;;;;;11.29;59.39;99748.16;4990831;28;20117;-38
2022/05/09 05:19:17;;;;;;;4.85;1.10;;;;;;;11.35;57.95;99749.69;4990143;28;20046;-38
2022/05/09 05:21:43;;;;;;;2.45;1.05;;;;;;;11.42;57.73;99757.19;4989504;28;20064;-39
2022/05/09 05:24:09;;;;;;;3.92;1.02;;;;;;;11.59;57.37;99748.75;4990942;28;20050;-39
2022/05/09 05:26:35;;;;;;;3.30;1.20;;;;;;;11.79;56.88;99750.63;4989892;28;20053;-40
2022/05/09 05:29:00;;;;;;;3.08;1.10;;;;;;;12.03;56.28;99751.47;4990850;28;20053;-40
2022/05/09 05:31:27;;;;;;;3.33;0.90;;;;;;;12.35;56.00;99763.22;4990545;28;20073;-39
2022/05/09 05:33:53;;;;;;;2.20;0.90;;;;;;;12.64;54.58;99750.69;4989810;28;20054;-39
2022/05/09 05:36:20;;;;;;;2.10;1.00;;;;;;;12.81;54.06;99739.53;4973522;28;20108;-39
2022/05/09 05:38:51;;;;;;;5.80;1.17;;;;;;;13.10;53.04;99767.84;4990304;28;20532;-40
2022/05/09 05:41:22;;;;;;;3.08;1.05;;;;;;;13.27;52.34;99764.53;4957390;28;20129;-40
2022/05/09 05:43:48;;;;;;;4.43;1.20;;;;;;;13.30;51.99;99755.69;4985465;28;20046;-39
2022/05/09 05:46:14;;;;;;;4.95;1.17;;;;;;;13.61;51.73;99761.25;4984948;28;20078;-39
2022/05/09 05:48:41;;;;;;;3.28;0.98;;;;;;;13.87;51.30;99771.34;4989786;28;20073;-41
2022/05/09 05:51:07;;;;;;;3.78;1.08;;;;;;;14.09;50.68;99768.59;4982253;28;20473;-41
2022/05/09 05:53:36;;;;;;;1.50;1.00;;;;;;;14.07;49.93;99748.69;4986701;28;20038;-41
2022/05/09 05:56:03;;;;;;;2.22;1.13;;;;;;;14.26;49.39;99763.41;4990090;28;20064;-39
2022/05/09 05:58:28;;;;;;;4.45;1.30;;;;;;;14.38;48.75;99770.69;4976060;28;20034;-38
2022/05/09 06:00:55;;;;;;;1.40;1.00;;;;;;;14.30;48.32;99746.63;4992172;28;20352;-39
2022/05/09 06:03:21;;;;;;;3.97;1.20;;;;;;;14.59;47.72;99765.34;4991641;28;20054;-39
2022/05/09 06:05:48;;;;;;;2.28;0.80;;;;;;;14.84;47.35;99768.41;4976880;28;20042;-38
2022/05/09 06:08:13;;;;;;;1.92;1.10;;;;;;;14.76;46.56;99760.94;4987719;28;20573;-40
2022/05/09 06:10:39;;;;;;;1.70;1.00;;;;;;;14.68;46.31;99770.97;4973716;28;20053;-40
2022/05/09 06:13:06;;;;;;;1.88;0.80;;;;;;;14.49;45.85;99748.41;4984426;28;20082;-40
2022/05/09 06:15:33;;;;;;;2.67;0.80;;;;;;;14.37;45.31;99776.00;4983382;28;20031;-39
2022/05/09 06:18:04;;;;;;;2.90;0.90;;;;;;;14.12;45.52;99768.44;4987121;28;20042;-39
2022/05/09 06:20:34;;;;;;;5.05;0.80;;;;;;;14.28;45.63;99779.88;4983526;28;20042;-39
2022/05/09 06:23:00;;;;;;;;;;;;;;;14.41;44.94;99777.53;4991464;28;20049;-39
2022/05/09 06:25:28;;;;;;;0.73;0.73;;;;;;;14.26;44.98;99784.31;4973437;28;20012;-40
2022/05/09 06:27:54;;;;;;;4.18;0.90;;;;;;;14.42;44.73;99779.25;4983279;28;20037;-40
2022/05/09 06:30:21;;;;;;;4.20;1.00;;;;;;;14.67;44.33;99786.72;4992584;28;20042;-41
2022/05/09 06:32:48;;;;;;;1.33;0.90;;;;;;;14.96;43.37;99770.44;4986016;28;20491;-40
2022/05/09 06:35:20;;;;;;;1.80;0.77;;;;;;;15.22;43.32;99771.72;4992396;28;20606;-39
2022/05/09 06:37:51;;;;;;;1.10;0.93;;;;;;;15.10;43.38;99790.66;4992554;28;20050;-39
2022/05/09 06:40:17;;;;;;;2.17;0.80;;;;;;;14.78;43.95;99793.13;4977903;28;20057;-39
2022/05/09 06:42:43;;;;;;;1.00;0.80;;;;;;;14.60;44.12;99788.78;4981339;28;20046;-40
2022/05/09 06:45:10;;;;;;;3.30;0.93;;;;;;;15.19;43.18;99796.28;4992307;28;20042;-40
2022/05/09 06:47:46;;;;;;;3.17;1.45;;;;;;;15.95;41.40;99794.88;4993466;28;20096;-40
2022/05/09 06:50:12;;;;;;;2.42;0.90;;;;;;;16.47;40.61;99791.97;4992989;28;20042;-40
2022/05/09 06:52:38;;;;;;;3.75;1.23;;;;;;;16.09;41.20;99796.75;4993872;28;20438;-40
2022/05/09 06:55:04;;;;;;;1.50;0.90;;;;;;;15.68;41.76;99791.97;4985346;28;20038;-39
2022/05/09 06:57:30;;;;;;;2.50;1.35;;;;;;;15.35;42.25;99798.94;4978628;28;20042;-39
2022/05/09 06:59:56;;;;;;;1.10;0.70;;;;;;;15.86;41.27;99792.75;4993001;28;20049;-40
2022/05/09 07:02:21;;;;;;;3.33;1.13;;;;;;;18.20;37.12;99795.50;4992145;28;20058;-39
2022/05/09 07:04:47;;;;;;;2.17;0.88;;;;;;;19.69;34.39;99777.56;4993339;28;20065;-40
2022/05/09 07:07:13;;;;;;;1.20;0.88;;;;;;;20.78;32.68;99794.34;4992042;28;20049;-40
2022/05/09 07:09:39;;;;;;;2.78;1.20;;;;;;;22.26;30.60;99792.47;4992261;28;20042;-40
2022/05/09 07:12:06;;;;;;;1.90;1.02;;;;;;;24.03;28.34;99779.16;4991887;28;20088;-39
2022/05/09 07:14:33;;;;;;;;;;;;;;;24.91;27.58;99781.84;4977052;28;20186;-40
2022/05/09 07:16:59;;;;;;;1.67;0.90;;;;;;;23.57;28.90;99783.19;4973831;28;20478;-39
2022/05/09 07:19:24;;;;;;;2.78;0.95;;;;;;;22.21;30.15;99792.00;4973660;28;20121;-38
2022/05/09 07:21:50;;;;;;;2.85;1.40;;;;;;;20.89;31.06;99783.78;4973440;28;20089;-39
2022/05/09 07:24:15;;;;;;;2.40;0.90;;;;;;;19.78;32.05;99790.13;4979156;28;20125;-39
2022/05/09 07:26:41;;;;;;;1.95;1.00;;;;;;;19.26;32.24;99778.84;4993050;28;20054;-40
2022/05/09 07:29:09;;;;;;;2.45;0.73;;;;;;;19.03;32.32;99781.25;4990689;28;20049;-40
2022/05/09 07:31:34;;;;;;;3.33;0.80;;;;;;;18.96;31.92;99769.44;4993097;28;20649;-38
2022/05/09 07:34:01;;;;;;;1.00;0.90;;;;;;;19.53;31.19;99773.47;4980739;28;20049;-39
2022/05/09 07:36:27;;;;;;;1.52;0.98;;;;;;;21.70;28.41;99767.84;4992735;28;20165;-39
2022/05/09 07:38:52;;;;;;;1.50;0.88;;;;;;;23.66;25.91;99786.03;4991463;28;20509;-40
2022/05/09 07:41:19;;;;;;;4.75;3.60;;;;;;;24.30;25.54;99790.03;4972023;28;20074;-40
2022/05/09 07:43:44;;;;;;;3.25;0.93;;;;;;;25.58;23.93;99788.88;4981775;28;20042;-40
2022/05/09 07:46:11;;;;;;;2.97;0.88;;;;;;;24.95;24.15;99793.88;4992483;28;20425;-39
2022/05/09 07:48:38;;;;;;;3.75;0.70;;;;;;;23.00;26.25;99777.53;4992632;28;20469;-39
2022/05/09 07:51:04;;;;;;;1.17;0.68;;;;;;;21.76;27.80;99791.19;4992373;28;20468;-40
2022/05/09 07:53:32;;;;;;;1.58;0.98;;;;;;;22.08;27.39;99794.81;4988152;28;20043;-39
2022/05/09 07:56:06;;;;;;;2.67;1.83;;;;;;;24.22;25.24;99787.22;4975308;28;20533;-39
2022/05/09 07:58:32;;;;;;;2.95;1.05;;;;;;;26.21;23.14;99776.50;4971124;28;20502;-41
2022/05/09 08:01:02;;;;;;;1.55;0.75;;;;;;;27.65;21.21;99777.06;4972979;28;20137;-40
2022/05/09 08:03:30;;;;;;;1.83;0.80;;;;;;;26.44;22.34;99775.09;4971254;28;20442;-41
2022/05/09 08:05:58;;;;;;;4.32;1.27;;;;;;;25.44;23.49;99786.63;4972879;28;20042;-40
2022/05/09 08:08:25;;;;;;;2.88;1.20;;;;;;;27.36;21.19;99788.91;4976031;28;20133;-39
2022/05/09 08:10:50;;;;;;;3.08;0.90;;;;;;;27.32;21.20;99789.38;4990810;28;20053;-40
2022/05/09 08:13:18;;;;;;;2.20;0.70;;;;;;;25.16;23.06;99780.41;4990941;28;20203;-40
2022/05/09 08:15:46;;;;;;;2.63;0.80;;;;;;;22.93;24.77;99784.28;4972965;28;20042;-41
2022/05/09 08:18:13;;;;;;;1.92;0.98;;;;;;;23.64;24.12;99787.00;4972261;28;20097;-41
2022/05/09 08:20:40;;;;;;;2.28;1.00;;;;;;;25.23;22.59;99777.00;4990582;28;20042;-40
2022/05/09 08:23:10;;;;;;;4.25;1.10;;;;;;;26.62;21.42;99782.28;4992260;28;20072;-41
2022/05/09 08:25:38;;;;;;;2.08;0.80;;;;;;;25.72;22.01;99797.22;4989698;28;20437;-40
2022/05/09 08:28:05;;;;;;;5.93;1.20;;;;;;;24.23;22.03;99798.69;4991076;28;20533;-40
2022/05/09 08:30:33;;;;;;;3.22;1.20;;;;;;;25.95;20.69;99799.50;4991379;28;20038;-39
2022/05/09 08:33:02;;;;;;;4.07;1.20;;;;;;;27.60;19.76;99812.28;4983234;28;20077;-41
2022/05/09 08:35:28;;;;;;;3.83;1.52;;;;;;;28.46;18.93;99810.34;4973962;28;20293;-40
2022/05/09 08:37:54;;;;;;;4.82;1.30;;;;;;;29.20;18.80;99814.78;4984950;28;20053;-42
2022/05/09 08:40:28;;;;;;;2.35;1.17;;;;;;;29.89;18.39;99824.88;4987306;28;20514;-40
2022/05/09 08:43:04;;;;;;;5.13;1.30;;;;;;;30.47;17.66;99830.84;4971240;28;20575;-40
2022/05/09 08:45:33;;;;;;;4.25;1.13;;;;;;;30.86;17.47;99823.56;4978493;28;20089;-41
2022/05/09 08:48:08;;;;;;;3.10;1.30;;;;;;;31.74;16.82;99823.78;4983104;28;20161;-41
2022/05/09 08:50:53;;;;;;;1.50;1.27;;;;;;;31.50;16.38;99824.03;4972452;28;20051;-40
2022/05/09 08:53:23;;;;;;;1.38;1.15;;;;;;;31.47;16.32;99816.31;4972494;28;20053;-39
2022/05/09 08:55:51;;;;;;;2.15;1.33;;;;;;;31.27;16.65;99826.75;4972341;28;20034;-41
2022/05/09 08:58:39;;;;;;;2.03;1.13;;;;;;;30.95;16.84;99825.16;4955120;28;20096;-40
2022/05/09 09:01:17;;;;;;;1.33;1.20;;;;;;;31.67;16.27;99817.47;4985703;28;20093;-41
2022/05/09 09:03:59;;;;;;;2.88;1.20;;;;;;;32.23;16.20;99817.84;4991528;28;20514;-39
2022/05/09 09:06:34;;;;;;;4.47;1.55;;;;;;;32.73;15.28;99815.09;4991492;28;20042;-40
2022/05/09 09:09:03;;;;;;;2.92;1.40;;;;;;;33.08;14.74;99826.81;4988518;28;20050;-40
2022/05/09 09:11:48;;;;;;;3.28;1.42;;;;;;;33.27;14.20;99821.84;4991367;28;20045;-40
2022/05/09 09:14:16;;;;;;;1.40;1.30;;;;;;;33.43;14.20;99827.78;4975339;28;20061;-40
2022/05/09 09:17:08;;;;;;;1.77;1.30;;;;;;;33.37;13.88;99831.25;4994989;28;20039;-39
2022/05/09 09:19:43;;;;;;;3.67;1.50;;;;;;;33.63;14.10;99836.84;4988832;28;20046;-40
2022/05/09 09:22:37;;;;;;;2.47;1.40;;;;;;;34.10;13.65;99829.03;4990092;28;20074;-41
2022/05/09 09:25:31;;;;;;;1.58;1.17;;;;;;;34.40;12.92;99820.44;4991272;28;20061;-39
2022/05/09 09:28:16;;;;;;;1.65;1.00;;;;;;;32.84;13.86;99818.31;4985219;28;20050;-40
2022/05/09 09:30:43;;;;;;;1.50;1.02;;;;;;;31.80;14.77;99823.03;4988899;28;20042;-42
2022/05/09 09:33:12;;;;;;;2.22;1.75;;;;;;;30.25;15.87;99829.78;4974484;28;20558;-40
2022/05/09 09:35:56;;;;;;;7.85;1.10;;;;;;;29.61;17.01;99846.88;4974467;28;20043;-41
2022/05/09 09:38:41;;;;;;;5.18;0.80;;;;;;;27.29;19.00;99851.09;4982665;28;20074;-40
2022/05/09 09:41:18;;;;;;;2.00;1.00;;;;;;;25.31;21.21;99851.69;4993925;28;20184;-40
2022/05/09 09:43:45;;;;;;;2.83;1.47;;;;;;;23.82;22.70;99850.09;4984911;28;20051;-41
2022/05/09 09:46:11;;;;;;;5.60;1.80;;;;;;;22.78;23.72;99853.53;4990061;28;20482;-40
2022/05/09 09:48:37;;;;;;;3.33;0.95;;;;;;;21.91;24.64;99858.81;4974636;28;20090;-41
2022/05/09 09:51:12;;;;;;;4.40;1.02;;;;;;;21.00;26.62;99860.50;4975465;28;20538;-41
2022/05/09 09:53:38;;;;;;;2.35;0.82;;;;;;;20.00;28.53;99873.06;4974092;28;20045;-39
2022/05/09 09:56:05;;;;;;;6.63;1.65;;;;;;;18.94;30.68;99882.00;4975342;28;20054;-39
2022/05/09 09:58:30;;;;;;;1.77;1.10;;;;;;;18.09;32.40;99876.91;4983395;28;20074;-39
2022/05/09 10:01:12;;;;;;;3.58;1.10;;;;;;;17.41;33.87;99874.97;4994614;28;20073;-40
2022/05/09 10:03:44;;;;;;;1.33;0.80;;;;;;;16.87;35.66;99878.06;4994419;28;20061;-38
2022/05/09 10:06:21;;;;;;;1.95;0.98;;;;;;;16.48;37.21;99886.38;4977205;28;20038;-39
2022/05/09 10:09:03;;;;;;;3.10;0.95;;;;;;;16.04;37.25;99874.81;4982110;28;20070;-40
2022/05/09 10:11:30;;;;;;;2.53;1.02;;;;;;;15.83;37.98;99889.06;4975003;28;20035;-39
2022/05/09 10:14:05;;;;;;;2.03;1.00;;;;;;;15.67;38.94;99879.41;4980611;28;20121;-40
2022/05/09 10:16:37;;;;;;;3.47;1.08;;;;;;;15.51;39.03;99888.97;4975072;28;20421;-39
2022/05/09 10:19:10;;;;;;;2.35;1.05;;;;;;;15.37;39.66;99877.47;4986934;28;20510;-39
2022/05/09 10:24:48;;;;;;;1.48;0.98;;;;;;;15.33;40.25;99876.78;4994283;28;20080;-39
2022/05/09 10:27:34;;;;;;;1.73;1.00;;;;;;;15.54;40.20;99887.97;4992322;28;20116;-39
2022/05/09 10:30:06;;;;;;;2.65;1.20;;;;;;;15.65;39.38;99885.63;4974133;28;20055;-40
2022/05/09 10:32:40;;;;;;;4.43;1.02;;;;;;;15.44;39.79;99899.81;4974386;28;20050;-41
2022/05/09 10:35:22;;;;;;;2.75;0.90;;;;;;;14.94;41.02;99915.41;4974400;28;20054;-40
2022/05/09 10:37:57;;;;;;;3.30;1.00;;;;;;;14.19;43.44;99871.81;4975817;28;20133;-39
2022/05/09 10:40:30;;;;;;;3.17;0.90;;;;;;;13.91;44.21;99879.25;4992867;28;20089;-40
2022/05/09 10:43:02;;;;;;;1.55;1.05;;;;;;;13.63;45.44;99883.97;4989646;28;20046;-39
2022/05/09 10:45:31;;;;;;;3.03;0.70;;;;;;;13.49;45.16;99895.03;4974320;28;20474;-39
2022/05/09 10:48:19;;;;;;;1.85;0.80;;;;;;;13.41;45.24;99907.53;4976912;28;20120;-40
2022/05/09 10:50:50;;;;;;;1.48;1.08;;;;;;;13.28;45.70;99907.22;4993635;28;20510;-40
2022/05/09 10:53:44;;;;;;;2.72;1.00;;;;;;;13.01;47.02;99919.63;4993612;28;20061;-40
2022/05/09 10:56:15;;;;;;;1.02;0.80;;;;;;;12.83;47.91;99920.34;4974584;28;20046;-39
2022/05/09 10:58:47;;;;;;;2.42;0.95;;;;;;;12.63;49.32;99935.94;4982209;28;20440;-40
2022/05/09 11:01:23;;;;;;;3.42;1.20;;;;;;;12.47;50.20;99942.63;4991956;28;20038;-38
2022/05/09 11:03:52;;;;;;;1.73;1.02;;;;;;;12.29;51.12;99932.03;4992232;28;20050;-39
2022/05/09 11:06:30;;;;;;;4.65;1.13;;;;;;;12.27;51.59;99936.44;4992117;28;20584;-39
2022/05/09 11:09:17;;;;;;;4.20;1.30;;;;;;;12.27;51.64;99928.59;4981082;28;20039;-39
2022/05/09 11:12:01;;;;;;;3.15;1.00;;;;;;;12.10;52.26;99943.16;4974188;28;20149;-39
2022/05/09 11:14:52;;;;;;;1.77;1.10;;;;;;;11.85;52.66;99948.41;4984872;28;20053;-40
2022/05/09 11:17:24;;;;;;;2.35;1.23;;;;;;;11.58;53.00;99936.28;4993305;28;20042;-39
2022/05/09 11:19:58;;;;;;;2.42;1.08;;;;;;;11.45;53.51;99928.06;4993050;28;20038;-41
2022/05/09 11:22:35;;;;;;;3.47;1.45;;;;;;;11.37;53.94;99924.84;4993136;28;20104;-40
2022/05/09 11:25:13;;;;;;;2.63;1.30;;;;;;;11.51;53.67;99929.63;4968429;28;20038;-39
2022/05/09 11:27:51;;;;;;;3.20;1.20;;;;;;;11.80;53.51;99927.72;4980047;28;20085;-42
2022/05/09 11:30:41;;;;;;;2.40;1.25;;;;;;;12.48;52.35;99918.28;4991474;28;20045;-39
2022/05/09 11:33:16;;;;;;;2.70;1.30;;;;;;;13.32;50.41;99921.84;4983272;28;20423;-38
2022/05/09 11:35:41;;;;;;;2.95;1.38;;;;;;;14.30;48.58;99915.78;4984333;28;20043;-39
2022/05/09 11:38:29;;;;;;;1.38;0.82;;;;;;;15.49;45.81;99913.53;4975323;28;20129;-40
2022/05/09 11:41:17;;;;;;;1.90;1.15;;;;;;;16.71;43.53;99911.38;4990868;28;20046;-40
2022/05/09 11:43:46;;;;;;;3.10;1.30;;;;;;;18.11;41.48;99911.84;4991959;28;20046;-39
2022/05/09 11:46:24;;;;;;;1.73;1.30;;;;;;;19.64;39.06;99906.31;4992694;28;20039;-40
2022/05/09 11:49:07;;;;;;;4.55;1.50;;;;;;;20.58;36.97;99923.47;4991451;28;20572;-38
2022/05/09 11:51:48;;;;;;;1.55;1.30;;;;;;;21.92;34.38;99903.72;4991364;28;20045;-39
2022/05/09 11:54:39;;;;;;;2.17;1.80;;;;;;;23.37;31.75;99923.84;4984539;28;20039;-39
2022/05/09 11:57:26;;;;;;;2.83;1.70;;;;;;;24.68;29.54;99921.34;4971976;28;20137;-39
2022/05/09 11:59:54;;;;;;;2.30;2.03;;;;;;;25.40;29.04;99931.66;4982266;28;20498;-39
2022/05/09 12:02:53;;;;;;;1.80;1.70;;;;;;;26.20;27.84;99920.59;4975810;28;20542;-40